createdAt,value
2018-05-17T00:00:02.061Z,14.10
2018-05-17T00:02:30.329Z,14.10
2018-05-17T00:04:58.594Z,14.00
2018-05-17T00:07:26.840Z,14.00
2018-05-17T00:09:55.108Z,14.10
2018-05-17T00:12:23.358Z,14.20
2018-05-17T00:14:51.613Z,14.50
2018-05-17T00:17:20.637Z,13.90
2018-05-17T00:19:48.864Z,13.80
2018-05-17T00:22:17.128Z,14.20
2018-05-17T00:24:45.372Z,14.30
2018-05-17T00:27:14.128Z,14.50
2018-05-17T00:29:43.144Z,13.90
2018-05-17T00:32:11.407Z,13.80
2018-05-17T00:34:40.423Z,13.70
2018-05-17T00:37:08.692Z,13.70
2018-05-17T00:39:37.692Z,13.80
2018-05-17T00:42:06.739Z,13.80
2018-05-17T00:44:35.026Z,13.70
2018-05-17T00:47:03.292Z,13.60
2018-05-17T00:49:31.596Z,13.90
2018-05-17T00:51:59.845Z,13.70
2018-05-17T00:54:28.108Z,13.70
2018-05-17T00:56:56.379Z,13.50
2018-05-17T00:59:25.479Z,13.60
2018-05-17T01:01:54.494Z,13.50
2018-05-17T01:04:22.747Z,13.50
2018-05-17T01:06:51.035Z,13.70
2018-05-17T01:09:20.058Z,13.70
2018-05-17T01:11:48.444Z,13.70
2018-05-17T01:14:16.717Z,13.70
2018-05-17T01:16:44.956Z,13.40
2018-05-17T01:19:13.680Z,13.60
2018-05-17T01:21:43.161Z,13.50
2018-05-17T01:24:11.439Z,13.50
2018-05-17T01:26:39.695Z,13.40
2018-05-17T01:29:07.991Z,13.40
2018-05-17T01:31:36.238Z,13.50
2018-05-17T01:34:04.507Z,13.20
2018-05-17T01:36:33.532Z,13.50
2018-05-17T01:39:01.847Z,13.50
2018-05-17T01:41:30.186Z,13.50
2018-05-17T01:43:58.484Z,13.40
2018-05-17T01:46:26.712Z,13.40
2018-05-17T01:48:55.748Z,13.20
2018-05-17T01:51:23.980Z,13.20
2018-05-17T01:53:52.269Z,13.30
2018-05-17T01:56:21.276Z,13.40
2018-05-17T01:58:50.299Z,13.20
2018-05-17T02:01:18.536Z,13.20
2018-05-17T02:03:46.809Z,13.40
2018-05-17T02:06:15.050Z,13.40
2018-05-17T02:08:43.343Z,13.30
2018-05-17T02:11:11.590Z,13.10
2018-05-17T02:13:40.826Z,13.20
2018-05-17T02:16:09.140Z,13.20
2018-05-17T02:18:38.160Z,13.60
2018-05-17T02:21:07.178Z,14.10
2018-05-17T02:23:36.202Z,13.50
2018-05-17T02:26:04.439Z,13.50
2018-05-17T02:28:33.480Z,13.40
2018-05-17T02:31:01.704Z,13.40
2018-05-17T02:33:29.964Z,13.30
2018-05-17T02:35:58.840Z,13.40
2018-05-17T02:38:27.143Z,13.60
2018-05-17T02:40:56.001Z,13.60
2018-05-17T02:43:24.238Z,12.90
2018-05-17T02:45:53.097Z,13.40
2018-05-17T02:48:21.407Z,13.00
2018-05-17T02:50:50.440Z,13.60
2018-05-17T02:53:19.464Z,13.50
2018-05-17T02:55:47.729Z,13.40
2018-05-17T02:58:15.982Z,13.20
2018-05-17T03:00:44.311Z,13.20
2018-05-17T03:03:12.587Z,12.80
2018-05-17T03:05:40.855Z,13.10
2018-05-17T03:08:09.091Z,13.10
2018-05-17T03:10:37.351Z,13.30
2018-05-17T03:13:05.624Z,13.20
2018-05-17T03:15:33.899Z,13.10
2018-05-17T03:18:02.155Z,13.40
2018-05-17T03:20:30.420Z,13.20
2018-05-17T03:22:59.452Z,13.00
2018-05-17T03:25:28.175Z,12.90
2018-05-17T03:27:56.425Z,13.50
2018-05-17T03:30:25.448Z,13.60
2018-05-17T03:32:53.755Z,13.60
2018-05-17T03:35:22.568Z,13.10
2018-05-17T03:37:52.287Z,13.30
2018-05-17T03:40:21.312Z,13.20
2018-05-17T03:42:50.066Z,13.20
2018-05-17T03:45:19.558Z,13.20
2018-05-17T03:47:47.801Z,13.20
2018-05-17T03:50:16.071Z,12.80
2018-05-17T03:52:44.904Z,12.90
2018-05-17T03:55:13.172Z,12.90
2018-05-17T03:57:42.014Z,12.70
2018-05-17T04:00:11.067Z,13.40
2018-05-17T04:02:51.164Z,13.40
2018-05-17T04:05:31.959Z,12.90
2018-05-17T04:08:00.203Z,12.90
2018-05-17T04:10:28.464Z,13.10
2018-05-17T04:12:56.722Z,13.30
2018-05-17T04:15:25.010Z,13.40
2018-05-17T04:17:53.285Z,12.60
2018-05-17T04:20:21.561Z,12.50
2018-05-17T04:22:49.819Z,13.00
2018-05-17T04:25:18.088Z,12.80
2018-05-17T04:27:47.137Z,13.20
2018-05-17T04:30:15.429Z,13.20
2018-05-17T04:32:43.781Z,12.70
2018-05-17T04:35:12.739Z,13.20
2018-05-17T04:37:47.956Z,13.20
2018-05-17T04:40:16.241Z,13.20
2018-05-17T04:42:44.491Z,13.40
2018-05-17T04:45:12.763Z,13.20
2018-05-17T04:47:41.017Z,13.20
2018-05-17T04:50:09.400Z,13.30
2018-05-17T04:52:38.407Z,13.30
2018-05-17T04:55:08.148Z,13.20
2018-05-17T04:57:36.391Z,13.20
2018-05-17T05:00:05.979Z,13.30
2018-05-17T05:02:34.261Z,13.20
2018-05-17T05:05:02.496Z,13.30
2018-05-17T05:07:30.772Z,13.00
2018-05-17T05:09:59.032Z,13.10
2018-05-17T05:12:28.052Z,13.00
2018-05-17T05:14:56.370Z,13.00
2018-05-17T05:17:24.630Z,13.10
2018-05-17T05:19:52.873Z,13.40
2018-05-17T05:22:21.900Z,13.50
2018-05-17T05:24:50.169Z,13.40
2018-05-17T05:27:18.428Z,13.90
2018-05-17T05:29:47.445Z,13.80
2018-05-17T05:32:15.717Z,13.80
2018-05-17T05:34:44.775Z,13.50
2018-05-17T05:37:13.039Z,13.50
2018-05-17T05:39:41.280Z,13.80
2018-05-17T05:42:09.613Z,14.40
2018-05-17T05:44:37.824Z,14.30
2018-05-17T05:47:06.867Z,14.70
2018-05-17T05:49:35.317Z,14.70
2018-05-17T05:52:04.341Z,14.60
2018-05-17T05:54:32.588Z,14.70
2018-05-17T05:57:00.837Z,14.50
2018-05-17T05:59:29.080Z,14.40
2018-05-17T06:01:58.119Z,14.20
2018-05-17T06:04:27.107Z,14.10
2018-05-17T06:06:55.375Z,14.20
2018-05-17T06:09:23.608Z,14.30
2018-05-17T06:11:52.641Z,14.40
2018-05-17T06:14:21.041Z,14.30
2018-05-17T06:16:49.404Z,14.60
2018-05-17T06:19:18.402Z,14.80
2018-05-17T06:21:46.733Z,14.80
2018-05-17T06:24:15.684Z,14.40
2018-05-17T06:26:43.940Z,14.40
2018-05-17T06:29:12.988Z,14.60
2018-05-17T06:31:41.263Z,14.60
2018-05-17T06:34:09.517Z,15.00
2018-05-17T06:36:39.280Z,15.40
2018-05-17T06:39:07.527Z,15.30
2018-05-17T06:41:35.797Z,15.60
2018-05-17T06:44:04.123Z,15.60
2018-05-17T06:46:32.385Z,15.30
2018-05-17T06:49:00.659Z,15.50
2018-05-17T06:51:29.693Z,15.50
2018-05-17T06:53:58.534Z,15.60
2018-05-17T06:56:26.769Z,15.50
2018-05-17T06:58:55.628Z,15.70
2018-05-17T07:01:23.859Z,15.50
2018-05-17T07:03:52.124Z,15.20
2018-05-17T07:06:20.360Z,15.20
2018-05-17T07:08:48.629Z,15.90
2018-05-17T07:11:17.693Z,17.20
2018-05-17T07:13:45.936Z,17.20
2018-05-17T07:16:14.184Z,17.60
2018-05-17T07:18:43.454Z,18.40
2018-05-17T07:21:11.550Z,18.40
2018-05-17T07:23:39.840Z,18.80
2018-05-17T07:26:08.069Z,18.90
2018-05-17T07:28:36.600Z,19.50
2018-05-17T07:31:05.192Z,19.80
2018-05-17T07:33:33.521Z,19.90
2018-05-17T07:36:01.763Z,19.20
2018-05-17T07:38:30.836Z,18.20
2018-05-17T07:40:59.076Z,18.10
2018-05-17T07:43:28.648Z,17.10
2018-05-17T07:45:56.881Z,17.20
2018-05-17T07:48:25.173Z,17.90
2018-05-17T07:50:53.935Z,18.80
2018-05-17T07:53:22.181Z,18.80
2018-05-17T07:55:50.517Z,19.00
2018-05-17T07:58:18.789Z,19.20
2018-05-17T08:00:47.044Z,19.60
2018-05-17T08:03:16.079Z,19.80
2018-05-17T08:05:44.940Z,19.80
2018-05-17T08:08:13.982Z,20.50
2018-05-17T08:10:42.241Z,20.40
2018-05-17T08:13:10.524Z,20.80
2018-05-17T08:15:38.780Z,21.20
2018-05-17T08:18:07.807Z,21.80
2018-05-17T08:20:36.329Z,21.80
2018-05-17T08:23:04.574Z,22.40
2018-05-17T08:25:33.443Z,22.70
2018-05-17T08:28:01.720Z,22.40
2018-05-17T08:30:30.731Z,22.90
2018-05-17T08:32:58.965Z,22.80
2018-05-17T08:35:27.239Z,22.90
2018-05-17T08:37:55.476Z,23.50
2018-05-17T08:40:24.013Z,23.90
2018-05-17T08:42:52.279Z,24.30
2018-05-17T08:45:21.204Z,23.60
2018-05-17T08:47:49.433Z,23.20
2018-05-17T08:50:17.723Z,22.70
2018-05-17T08:52:46.007Z,22.70
2018-05-17T08:55:14.289Z,22.50
2018-05-17T08:57:42.563Z,22.00
2018-05-17T09:00:10.882Z,22.20
2018-05-17T09:02:40.498Z,22.30
2018-05-17T09:05:08.774Z,22.90
2018-05-17T09:07:37.003Z,23.40
2018-05-17T09:10:05.260Z,23.70
2018-05-17T09:12:34.269Z,22.10
2018-05-17T09:15:03.291Z,22.60
2018-05-17T09:17:31.549Z,22.60
2018-05-17T09:20:00.648Z,23.00
2018-05-17T09:22:28.832Z,23.00
2018-05-17T09:24:57.851Z,22.80
2018-05-17T09:27:26.860Z,22.80
2018-05-17T09:29:55.103Z,23.80
2018-05-17T09:32:24.200Z,24.80
2018-05-17T09:34:53.235Z,24.90
2018-05-17T09:37:21.493Z,24.90
2018-05-17T09:39:50.979Z,25.30
2018-05-17T09:42:20.835Z,25.20
2018-05-17T09:44:49.102Z,25.20
2018-05-17T09:47:19.836Z,25.70
2018-05-17T09:49:48.870Z,25.90
2018-05-17T09:52:17.108Z,25.90
2018-05-17T09:54:46.137Z,25.40
2018-05-17T09:57:14.399Z,25.40
2018-05-17T09:59:43.253Z,25.40
2018-05-17T10:02:11.666Z,25.90
2018-05-17T10:04:40.697Z,26.50
2018-05-17T10:07:09.087Z,26.50
2018-05-17T10:09:37.320Z,26.30
2018-05-17T10:12:06.339Z,26.70
2018-05-17T10:14:34.886Z,26.70
2018-05-17T10:17:03.068Z,27.20
2018-05-17T10:19:31.330Z,27.30
2018-05-17T10:22:00.054Z,27.20
2018-05-17T10:24:28.318Z,27.50
2018-05-17T10:26:56.605Z,27.30
2018-05-17T10:29:25.705Z,27.50
2018-05-17T10:31:53.928Z,27.40
2018-05-17T10:34:22.195Z,27.90
2018-05-17T10:36:51.219Z,28.50
2018-05-17T10:39:19.467Z,28.40
2018-05-17T10:41:48.509Z,28.40
2018-05-17T10:44:16.740Z,28.40
2018-05-17T10:46:45.785Z,27.90
2018-05-17T10:49:14.053Z,27.90
2018-05-17T10:51:43.172Z,27.90
2018-05-17T10:54:11.411Z,27.90
2018-05-17T10:56:40.447Z,27.70
2018-05-17T10:59:10.140Z,27.60
2018-05-17T11:01:38.427Z,27.90
2018-05-17T11:04:07.436Z,28.70
2018-05-17T11:06:35.732Z,28.60
2018-05-17T11:09:03.960Z,28.60
2018-05-17T11:11:33.085Z,28.50
2018-05-17T11:14:01.350Z,28.40
2018-05-17T11:16:30.385Z,28.40
2018-05-17T11:18:58.647Z,28.40
2018-05-17T11:21:27.099Z,28.20
2018-05-17T11:23:56.850Z,28.30
2018-05-17T11:26:25.141Z,28.10
2018-05-17T11:28:53.670Z,28.00
2018-05-17T11:31:21.932Z,27.90
2018-05-17T11:33:50.171Z,28.10
2018-05-17T11:36:19.200Z,27.70
2018-05-17T11:38:47.713Z,27.70
2018-05-17T11:41:15.986Z,28.00
2018-05-17T11:43:44.225Z,28.30
2018-05-17T11:46:13.388Z,28.60
2018-05-17T11:48:41.646Z,28.90
2018-05-17T11:51:09.904Z,29.10
2018-05-17T11:53:38.247Z,28.90
2018-05-17T11:56:07.294Z,28.40
2018-05-17T11:58:36.291Z,28.40
2018-05-17T12:01:04.574Z,28.60
2018-05-17T12:03:32.809Z,28.70
2018-05-17T12:06:01.960Z,29.00
2018-05-17T12:08:30.230Z,29.00
2018-05-17T12:10:58.925Z,28.20
2018-05-17T12:13:27.244Z,28.30
2018-05-17T12:15:55.540Z,27.70
2018-05-17T12:18:23.776Z,27.40
2018-05-17T12:20:52.053Z,27.20
2018-05-17T12:23:20.288Z,27.30
2018-05-17T12:25:49.398Z,27.70
2018-05-17T12:28:18.421Z,27.90
2018-05-17T12:30:46.666Z,27.90
2018-05-17T12:33:15.701Z,28.50
2018-05-17T12:35:43.962Z,28.50
2018-05-17T12:38:13.130Z,28.50
2018-05-17T12:40:41.252Z,28.50
2018-05-17T12:43:09.514Z,28.50
2018-05-17T12:45:38.507Z,28.70
2018-05-17T12:48:07.569Z,28.60
2018-05-17T12:50:35.823Z,28.50
2018-05-17T12:53:04.090Z,28.40
2018-05-17T12:55:32.493Z,28.60
2018-05-17T12:58:00.748Z,28.70
2018-05-17T13:00:29.769Z,28.70
2018-05-17T13:02:58.033Z,28.70
2018-05-17T13:05:26.284Z,28.80
2018-05-17T13:07:54.570Z,28.90
2018-05-17T13:10:22.813Z,28.70
2018-05-17T13:12:51.090Z,28.30
2018-05-17T13:15:19.582Z,28.20
2018-05-17T13:17:47.863Z,28.30
2018-05-17T13:20:16.103Z,28.30
2018-05-17T13:22:45.146Z,27.80
2018-05-17T13:25:13.404Z,27.70
2018-05-17T13:27:41.676Z,26.90
2018-05-17T13:30:10.705Z,26.90
2018-05-17T13:32:39.721Z,27.20
2018-05-17T13:35:07.968Z,27.20
2018-05-17T13:37:37.267Z,27.60
2018-05-17T13:40:05.424Z,27.60
2018-05-17T13:42:34.458Z,27.90
2018-05-17T13:45:02.822Z,27.80
2018-05-17T13:47:31.100Z,28.10
2018-05-17T13:49:59.344Z,28.10
2018-05-17T13:52:27.706Z,27.90
2018-05-17T13:54:55.955Z,28.00
2018-05-17T13:57:24.812Z,27.50
2018-05-17T13:59:54.238Z,27.90
2018-05-17T14:02:23.336Z,27.80
2018-05-17T14:04:51.506Z,27.90
2018-05-17T14:07:21.034Z,27.80
2018-05-17T14:09:50.086Z,28.00
2018-05-17T14:12:18.292Z,27.90
2018-05-17T14:14:47.334Z,27.40
2018-05-17T14:17:15.797Z,27.40
2018-05-17T14:19:44.863Z,26.80
2018-05-17T14:22:13.080Z,26.90
2018-05-17T14:24:41.360Z,27.00
2018-05-17T14:27:09.648Z,27.20
2018-05-17T14:29:37.981Z,27.10
2018-05-17T14:32:06.236Z,27.20
2018-05-17T14:34:34.510Z,27.00
2018-05-17T14:37:02.749Z,26.70
2018-05-17T14:39:31.784Z,26.60
2018-05-17T14:42:00.013Z,26.60
2018-05-17T14:44:28.297Z,26.30
2018-05-17T14:46:57.352Z,26.00
2018-05-17T14:49:25.607Z,26.00
2018-05-17T14:51:53.863Z,25.60
2018-05-17T14:54:22.135Z,25.50
2018-05-17T14:56:50.371Z,25.50
2018-05-17T14:59:19.323Z,25.60
2018-05-17T15:01:47.579Z,25.70
2018-05-17T15:04:15.844Z,25.50
2018-05-17T15:06:44.076Z,25.00
2018-05-17T15:09:13.119Z,25.20
2018-05-17T15:11:41.964Z,25.20
2018-05-17T15:14:10.993Z,24.60
2018-05-17T15:16:39.526Z,24.60
2018-05-17T15:19:07.844Z,24.10
2018-05-17T15:21:36.820Z,24.30
2018-05-17T15:24:05.824Z,23.80
2018-05-17T15:26:35.577Z,23.60
2018-05-17T15:29:03.868Z,23.60
2018-05-17T15:31:32.120Z,23.60
2018-05-17T15:34:00.465Z,23.20
2018-05-17T15:36:28.637Z,22.90
2018-05-17T15:38:56.918Z,22.90
2018-05-17T15:41:25.954Z,22.90
2018-05-17T15:43:55.016Z,22.90
2018-05-17T15:46:23.865Z,22.90
2018-05-17T15:48:52.110Z,22.50
2018-05-17T15:51:20.348Z,22.10
2018-05-17T15:53:48.608Z,21.90
2018-05-17T15:56:16.866Z,21.80
2018-05-17T15:58:45.903Z,21.80
2018-05-17T16:01:14.907Z,21.80
2018-05-17T16:03:43.196Z,21.80
2018-05-17T16:06:11.435Z,21.70
2018-05-17T16:08:40.444Z,21.60
2018-05-17T16:11:08.692Z,21.60
2018-05-17T16:13:37.865Z,21.50
2018-05-17T16:16:06.134Z,21.30
2018-05-17T16:18:34.356Z,21.20
2018-05-17T16:21:03.385Z,20.80
2018-05-17T16:23:31.629Z,20.70
2018-05-17T16:25:59.904Z,20.80
2018-05-17T16:28:28.155Z,20.40
2018-05-17T16:30:56.419Z,20.30
2018-05-17T16:33:24.667Z,20.30
2018-05-17T16:35:53.714Z,20.30
2018-05-17T16:38:21.963Z,20.20
2018-05-17T16:40:51.045Z,20.00
2018-05-17T16:43:19.207Z,20.00
2018-05-17T16:45:47.488Z,19.90
2018-05-17T16:48:15.740Z,19.90
2018-05-17T16:50:43.975Z,19.50
2018-05-17T16:53:13.096Z,19.20
2018-05-17T16:55:42.031Z,19.10
2018-05-17T16:58:10.268Z,19.10
2018-05-17T17:00:38.623Z,19.00
2018-05-17T17:03:06.807Z,19.00
2018-05-17T17:05:35.860Z,19.10
2018-05-17T17:08:04.143Z,19.10
2018-05-17T17:10:32.420Z,19.10
2018-05-17T17:13:01.390Z,19.10
2018-05-17T17:15:30.395Z,18.80
2018-05-17T17:17:58.889Z,18.80
2018-05-17T17:20:27.170Z,18.90
2018-05-17T17:22:55.422Z,18.80
2018-05-17T17:25:23.691Z,18.70
2018-05-17T17:27:52.032Z,18.60
2018-05-17T17:30:20.307Z,18.30
2018-05-17T17:32:48.556Z,18.40
2018-05-17T17:35:17.590Z,18.30
2018-05-17T17:37:45.816Z,18.30
2018-05-17T17:40:14.921Z,18.20
2018-05-17T17:42:43.807Z,18.20
2018-05-17T17:45:12.905Z,18.10
2018-05-17T17:47:41.223Z,18.10
2018-05-17T17:50:10.238Z,18.00
2018-05-17T17:52:38.583Z,18.00
2018-05-17T17:55:06.816Z,17.90
2018-05-17T17:57:35.115Z,18.00
2018-05-17T18:00:04.085Z,18.00
2018-05-17T18:02:32.363Z,18.00
2018-05-17T18:05:01.217Z,17.90
2018-05-17T18:07:29.507Z,17.70
2018-05-17T18:09:58.521Z,17.80
2018-05-17T18:12:27.518Z,17.60
2018-05-17T18:14:55.792Z,17.50
2018-05-17T18:17:24.801Z,17.60
2018-05-17T18:19:53.078Z,17.50
2018-05-17T18:22:21.324Z,17.40
2018-05-17T18:24:49.632Z,17.30
2018-05-17T18:27:17.853Z,17.40
2018-05-17T18:29:46.132Z,17.20
2018-05-17T18:32:14.379Z,16.90
2018-05-17T18:34:44.212Z,16.70
2018-05-17T18:37:12.434Z,16.70
2018-05-17T18:39:40.697Z,17.00
2018-05-17T18:42:08.959Z,16.90
2018-05-17T18:44:37.258Z,16.80
2018-05-17T18:47:07.093Z,16.30
2018-05-17T18:49:35.357Z,16.30
2018-05-17T18:52:03.633Z,16.30
2018-05-17T18:54:31.915Z,16.10
2018-05-17T18:57:00.951Z,16.00
2018-05-17T18:59:29.178Z,15.90
2018-05-17T19:01:57.599Z,16.20
2018-05-17T19:04:26.536Z,16.00
2018-05-17T19:06:55.572Z,16.00
2018-05-17T19:09:24.337Z,15.90
2018-05-17T19:11:52.609Z,15.80
2018-05-17T19:14:21.650Z,15.70
2018-05-17T19:16:49.908Z,15.60
2018-05-17T19:19:18.180Z,15.50
2018-05-17T19:21:46.482Z,15.40
2018-05-17T19:24:15.478Z,15.40
2018-05-17T19:26:44.296Z,15.40
2018-05-17T19:29:12.525Z,15.50
2018-05-17T19:31:41.646Z,15.20
2018-05-17T19:34:09.847Z,15.20
2018-05-17T19:36:38.146Z,15.00
2018-05-17T19:39:06.403Z,15.00
2018-05-17T19:41:34.721Z,14.90
2018-05-17T19:44:02.985Z,14.90
2018-05-17T19:46:31.240Z,14.60
2018-05-17T19:48:59.558Z,14.50
2018-05-17T19:51:27.808Z,14.60
2018-05-17T19:53:56.073Z,14.60
2018-05-17T19:56:24.398Z,14.80
2018-05-17T19:58:52.666Z,14.80
2018-05-17T20:01:21.656Z,14.60
2018-05-17T20:03:49.983Z,14.50
2018-05-17T20:06:18.223Z,14.50
2018-05-17T20:08:47.212Z,14.40
2018-05-17T20:11:15.647Z,14.50
2018-05-17T20:13:43.893Z,14.60
2018-05-17T20:16:12.952Z,14.20
2018-05-17T20:18:41.987Z,14.20
2018-05-17T20:21:10.995Z,14.20
2018-05-17T20:23:39.351Z,14.20
2018-05-17T20:26:07.584Z,14.10
2018-05-17T20:28:35.876Z,14.20
2018-05-17T20:31:05.062Z,14.20
2018-05-17T20:33:34.738Z,14.00
2018-05-17T20:36:03.002Z,13.90
2018-05-17T20:38:31.274Z,13.90
2018-05-17T20:41:00.304Z,14.20
2018-05-17T20:43:28.577Z,14.20
2018-05-17T20:45:56.842Z,13.90
2018-05-17T20:48:25.123Z,14.10
2018-05-17T20:50:53.363Z,14.00
2018-05-17T20:53:21.628Z,14.20
2018-05-17T20:55:49.875Z,13.90
2018-05-17T20:58:18.121Z,13.60
2018-05-17T21:00:47.144Z,13.50
2018-05-17T21:03:15.398Z,13.50
2018-05-17T21:05:44.425Z,13.70
2018-05-17T21:08:13.620Z,13.70
2018-05-17T21:10:42.627Z,13.50
2018-05-17T21:13:11.487Z,13.50
2018-05-17T21:15:39.751Z,13.80
2018-05-17T21:18:08.029Z,13.60
2018-05-17T21:20:36.420Z,13.60
2018-05-17T21:23:04.644Z,13.60
2018-05-17T21:25:32.916Z,13.70
2018-05-17T21:28:01.940Z,13.40
2018-05-17T21:30:30.196Z,13.30
2018-05-17T21:32:59.220Z,13.40
2018-05-17T21:35:27.475Z,13.40
2018-05-17T21:37:56.501Z,12.90
2018-05-17T21:40:24.743Z,12.90
2018-05-17T21:42:53.768Z,12.90
2018-05-17T21:45:22.064Z,12.90
2018-05-17T21:47:50.311Z,12.80
2018-05-17T21:50:20.248Z,12.90
2018-05-17T21:52:50.655Z,12.90
2018-05-17T21:55:19.628Z,12.70
2018-05-17T21:57:48.617Z,12.40
2018-05-17T22:00:16.861Z,12.40
2018-05-17T22:02:45.894Z,12.50
2018-05-17T22:05:14.171Z,12.60
2018-05-17T22:07:42.410Z,12.30
2018-05-17T22:10:10.663Z,12.00
2018-05-17T22:12:38.905Z,12.20
2018-05-17T22:15:07.175Z,12.30
2018-05-17T22:17:35.509Z,12.20
2018-05-17T22:20:03.774Z,12.60
2018-05-17T22:22:32.022Z,12.60
2018-05-17T22:25:01.180Z,12.60
2018-05-17T22:27:30.212Z,13.00
2018-05-17T22:29:58.474Z,13.00
2018-05-17T22:32:27.495Z,13.50
2018-05-17T22:34:55.748Z,13.50
2018-05-17T22:37:24.453Z,13.40
2018-05-17T22:39:53.485Z,13.30
2018-05-17T22:42:22.548Z,13.30
2018-05-17T22:44:50.825Z,13.20
2018-05-17T22:47:19.833Z,13.40
2018-05-17T22:49:48.095Z,13.40
2018-05-17T22:52:17.107Z,13.40
2018-05-17T22:54:45.389Z,13.40
2018-05-17T22:57:13.639Z,13.10
2018-05-17T22:59:41.908Z,13.80
2018-05-17T23:02:10.158Z,13.60
2018-05-17T23:04:38.404Z,13.60
2018-05-17T23:07:07.436Z,13.50
2018-05-17T23:09:35.711Z,13.50
2018-05-17T23:12:04.978Z,13.60
2018-05-17T23:14:33.972Z,13.80
2018-05-17T23:17:03.069Z,13.50
2018-05-17T23:19:31.328Z,13.50
2018-05-17T23:21:59.594Z,13.40
2018-05-17T23:24:27.829Z,13.40
2018-05-17T23:26:56.876Z,13.80
2018-05-17T23:29:25.090Z,13.80
2018-05-17T23:31:53.416Z,13.90
2018-05-17T23:34:21.656Z,13.80
2018-05-17T23:36:50.704Z,13.60
2018-05-17T23:39:18.992Z,13.60
2018-05-17T23:41:47.353Z,13.70
2018-05-17T23:44:15.598Z,13.70
2018-05-17T23:46:43.924Z,14.10
2018-05-17T23:49:12.162Z,14.10
2018-05-17T23:51:40.430Z,13.70
2018-05-17T23:54:08.693Z,13.70
2018-05-17T23:56:36.997Z,13.60
2018-05-17T23:59:05.247Z,13.40
